createdAt,value
2018-07-25T00:00:42.565Z,23.50
2018-07-25T00:03:10.821Z,23.70
2018-07-25T00:05:38.276Z,23.70
2018-07-25T00:08:05.751Z,23.60
2018-07-25T00:10:33.978Z,23.80
2018-07-25T00:13:01.433Z,23.80
2018-07-25T00:15:28.898Z,23.70
2018-07-25T00:17:56.403Z,23.70
2018-07-25T00:20:23.862Z,23.60
2018-07-25T00:22:51.426Z,23.60
2018-07-25T00:25:18.888Z,23.80
2018-07-25T00:27:46.363Z,23.80
2018-07-25T00:30:13.838Z,23.70
2018-07-25T00:32:41.287Z,23.60
2018-07-25T00:35:08.754Z,23.50
2018-07-25T00:37:36.214Z,23.40
2018-07-25T00:40:03.663Z,23.30
2018-07-25T00:42:31.120Z,23.20
2018-07-25T00:44:58.575Z,23.10
2018-07-25T00:47:26.156Z,23.40
2018-07-25T00:49:53.714Z,23.30
2018-07-25T00:52:21.281Z,23.10
2018-07-25T00:54:48.739Z,23.10
2018-07-25T00:57:16.192Z,23.00
2018-07-25T00:59:43.667Z,23.00
2018-07-25T01:02:11.136Z,23.00
2018-07-25T01:04:38.705Z,23.10
2018-07-25T01:07:07.695Z,22.90
2018-07-25T01:09:35.256Z,22.90
2018-07-25T01:12:02.716Z,22.90
2018-07-25T01:14:30.170Z,22.80
2018-07-25T01:16:57.621Z,22.90
2018-07-25T01:19:25.108Z,22.90
2018-07-25T01:21:52.665Z,22.80
2018-07-25T01:24:20.119Z,22.80
2018-07-25T01:26:48.277Z,22.70
2018-07-25T01:29:15.740Z,22.60
2018-07-25T01:31:43.208Z,22.90
2018-07-25T01:34:10.668Z,22.90
2018-07-25T01:36:38.132Z,22.70
2018-07-25T01:39:05.585Z,22.50
2018-07-25T01:41:33.046Z,22.20
2018-07-25T01:44:00.507Z,22.40
2018-07-25T01:46:27.973Z,22.50
2018-07-25T01:48:55.473Z,22.50
2018-07-25T01:51:23.028Z,22.60
2018-07-25T01:53:50.500Z,22.80
2018-07-25T01:56:17.966Z,22.60
2018-07-25T01:58:46.202Z,22.80
2018-07-25T02:01:13.645Z,22.70
2018-07-25T02:03:41.103Z,22.60
2018-07-25T02:06:08.567Z,22.40
2018-07-25T02:08:36.047Z,22.20
2018-07-25T02:11:03.516Z,22.20
2018-07-25T02:13:31.004Z,22.30
2018-07-25T02:15:58.576Z,22.20
2018-07-25T02:18:26.026Z,22.40
2018-07-25T02:20:53.476Z,22.50
2018-07-25T02:23:20.943Z,22.30
2018-07-25T02:25:48.408Z,22.60
2018-07-25T02:28:15.868Z,22.50
2018-07-25T02:30:43.449Z,22.30
2018-07-25T02:33:11.913Z,21.90
2018-07-25T02:35:39.390Z,21.70
2018-07-25T02:38:06.846Z,21.90
2018-07-25T02:40:34.314Z,21.90
2018-07-25T02:43:01.780Z,22.10
2018-07-25T02:45:29.228Z,22.20
2018-07-25T02:47:56.705Z,22.20
2018-07-25T02:50:24.271Z,22.20
2018-07-25T02:52:51.724Z,22.00
2018-07-25T02:55:19.196Z,22.00
2018-07-25T02:57:46.776Z,22.00
2018-07-25T03:00:14.247Z,21.90
2018-07-25T03:02:41.799Z,22.00
2018-07-25T03:05:10.066Z,22.10
2018-07-25T03:07:37.536Z,22.10
2018-07-25T03:10:05.000Z,22.00
2018-07-25T03:12:33.232Z,21.90
2018-07-25T03:15:00.685Z,21.90
2018-07-25T03:17:28.204Z,22.00
2018-07-25T03:19:56.438Z,22.30
2018-07-25T03:22:24.460Z,22.30
2018-07-25T03:24:52.742Z,22.40
2018-07-25T03:27:20.291Z,22.40
2018-07-25T03:29:47.759Z,22.20
2018-07-25T03:32:15.317Z,22.00
2018-07-25T03:34:42.768Z,22.10
2018-07-25T03:37:10.228Z,22.20
2018-07-25T03:39:37.704Z,22.40
2018-07-25T03:42:05.283Z,22.50
2018-07-25T03:44:32.735Z,22.40
2018-07-25T03:47:00.205Z,22.40
2018-07-25T03:49:28.419Z,21.90
2018-07-25T03:51:55.927Z,22.00
2018-07-25T03:54:23.400Z,21.90
2018-07-25T03:56:50.856Z,21.80
2018-07-25T03:59:18.435Z,21.90
2018-07-25T04:01:45.898Z,22.20
2018-07-25T04:04:14.860Z,22.00
2018-07-25T04:06:42.354Z,22.00
2018-07-25T04:09:11.384Z,21.90
2018-07-25T04:11:38.805Z,21.90
2018-07-25T04:14:06.254Z,21.90
2018-07-25T04:16:33.730Z,21.90
2018-07-25T04:19:01.293Z,21.90
2018-07-25T04:21:28.850Z,22.00
2018-07-25T04:23:56.308Z,21.90
2018-07-25T04:26:23.760Z,21.80
2018-07-25T04:28:51.220Z,21.70
2018-07-25T04:31:18.673Z,21.80
2018-07-25T04:33:46.163Z,22.00
2018-07-25T04:36:13.739Z,22.30
2018-07-25T04:38:41.290Z,21.90
2018-07-25T04:41:09.025Z,21.80
2018-07-25T04:43:36.488Z,21.80
2018-07-25T04:46:04.024Z,21.80
2018-07-25T04:48:31.419Z,21.90
2018-07-25T04:50:58.916Z,21.80
2018-07-25T04:53:26.475Z,21.90
2018-07-25T04:55:53.938Z,21.70
2018-07-25T04:58:21.506Z,21.80
2018-07-25T05:00:48.957Z,21.70
2018-07-25T05:03:16.447Z,21.70
2018-07-25T05:05:44.672Z,22.00
2018-07-25T05:08:12.905Z,22.10
2018-07-25T05:10:40.373Z,22.10
2018-07-25T05:13:07.823Z,22.10
2018-07-25T05:15:35.279Z,22.00
2018-07-25T05:18:04.448Z,22.20
2018-07-25T05:20:31.946Z,22.30
2018-07-25T05:22:59.419Z,22.20
2018-07-25T05:25:27.653Z,22.30
2018-07-25T05:27:55.115Z,22.20
2018-07-25T05:30:22.577Z,22.30
2018-07-25T05:32:50.070Z,22.30
2018-07-25T05:35:17.542Z,22.20
2018-07-25T05:37:45.765Z,22.10
2018-07-25T05:40:13.275Z,22.10
2018-07-25T05:42:40.731Z,22.10
2018-07-25T05:45:08.259Z,22.20
2018-07-25T05:47:35.712Z,22.30
2018-07-25T05:50:03.225Z,22.70
2018-07-25T05:52:30.787Z,22.90
2018-07-25T05:54:58.367Z,23.00
2018-07-25T05:57:25.904Z,23.10
2018-07-25T05:59:53.364Z,23.30
2018-07-25T06:02:20.830Z,23.50
2018-07-25T06:04:48.325Z,23.50
2018-07-25T06:07:15.827Z,23.60
2018-07-25T06:09:43.372Z,23.70
2018-07-25T06:12:11.603Z,23.70
2018-07-25T06:14:39.071Z,23.70
2018-07-25T06:17:06.631Z,23.70
2018-07-25T06:19:34.200Z,23.80
2018-07-25T06:22:01.656Z,23.90
2018-07-25T06:24:29.234Z,23.90
2018-07-25T06:26:56.693Z,24.00
2018-07-25T06:29:24.158Z,23.90
2018-07-25T06:31:51.721Z,23.90
2018-07-25T06:34:19.184Z,24.00
2018-07-25T06:36:47.124Z,24.10
2018-07-25T06:39:14.583Z,24.10
2018-07-25T06:41:42.075Z,24.10
2018-07-25T06:44:09.541Z,24.10
2018-07-25T06:46:37.167Z,24.10
2018-07-25T06:49:04.612Z,24.10
2018-07-25T06:51:32.833Z,24.00
2018-07-25T06:54:00.327Z,24.00
2018-07-25T06:56:29.308Z,23.90
2018-07-25T06:58:56.875Z,23.90
2018-07-25T07:01:24.364Z,23.90
2018-07-25T07:03:52.618Z,23.90
2018-07-25T07:06:20.182Z,23.90
2018-07-25T07:08:47.744Z,23.90
2018-07-25T07:11:15.304Z,23.80
2018-07-25T07:13:43.147Z,23.90
2018-07-25T07:16:10.613Z,23.90
2018-07-25T07:18:38.072Z,23.90
2018-07-25T07:21:05.562Z,23.90
2018-07-25T07:23:33.019Z,24.00
2018-07-25T07:26:00.592Z,24.00
2018-07-25T07:28:28.040Z,24.00
2018-07-25T07:30:55.511Z,24.00
2018-07-25T07:33:23.966Z,24.00
2018-07-25T07:35:51.440Z,24.10
2018-07-25T07:38:18.929Z,24.10
2018-07-25T07:40:46.391Z,24.10
2018-07-25T07:43:13.840Z,24.10
2018-07-25T07:45:41.297Z,24.20
2018-07-25T07:48:08.758Z,24.20
2018-07-25T07:50:36.243Z,24.20
2018-07-25T07:53:03.801Z,24.20
2018-07-25T07:55:31.363Z,24.30
2018-07-25T07:57:58.836Z,24.20
2018-07-25T08:00:26.313Z,24.20
2018-07-25T08:02:53.775Z,24.30
2018-07-25T08:05:21.247Z,24.40
2018-07-25T08:07:49.475Z,24.70
2018-07-25T08:10:16.954Z,24.60
2018-07-25T08:12:44.431Z,24.80
2018-07-25T08:15:12.676Z,24.90
2018-07-25T08:17:40.185Z,24.80
2018-07-25T08:20:08.445Z,24.90
2018-07-25T08:22:35.906Z,24.90
2018-07-25T08:25:03.364Z,24.90
2018-07-25T08:27:30.930Z,24.90
2018-07-25T08:29:58.507Z,24.90
2018-07-25T08:32:26.550Z,24.90
2018-07-25T08:34:54.044Z,24.90
2018-07-25T08:37:21.483Z,25.00
2018-07-25T08:39:48.953Z,24.90
2018-07-25T08:42:16.407Z,24.90
2018-07-25T08:44:43.870Z,25.00
2018-07-25T08:47:11.336Z,25.00
2018-07-25T08:49:38.781Z,25.00
2018-07-25T08:52:07.010Z,25.00
2018-07-25T08:54:34.541Z,25.00
2018-07-25T08:57:02.020Z,25.00
2018-07-25T08:59:31.009Z,25.00
2018-07-25T09:01:58.469Z,25.00
2018-07-25T09:04:25.927Z,25.00
2018-07-25T09:06:53.491Z,25.00
2018-07-25T09:09:20.961Z,25.00
2018-07-25T09:11:48.535Z,25.00
2018-07-25T09:14:17.515Z,25.00
2018-07-25T09:16:44.970Z,25.00
2018-07-25T09:19:12.420Z,25.00
2018-07-25T09:21:39.888Z,24.90
2018-07-25T09:24:07.351Z,25.00
2018-07-25T09:26:35.851Z,25.00
2018-07-25T09:29:03.412Z,25.00
2018-07-25T09:31:30.876Z,25.00
2018-07-25T09:33:58.353Z,25.00
2018-07-25T09:36:26.567Z,24.90
2018-07-25T09:38:54.094Z,24.90
2018-07-25T09:41:23.064Z,24.90
2018-07-25T09:43:50.545Z,24.90
2018-07-25T09:46:18.159Z,24.90
2018-07-25T09:48:45.576Z,25.00
2018-07-25T09:51:14.119Z,24.90
2018-07-25T09:53:41.639Z,24.90
2018-07-25T09:56:09.902Z,24.90
2018-07-25T09:58:37.470Z,24.90
2018-07-25T10:01:05.049Z,24.90
2018-07-25T10:03:33.214Z,24.90
2018-07-25T10:06:00.674Z,24.90
2018-07-25T10:08:28.140Z,24.90
2018-07-25T10:10:55.732Z,24.90
2018-07-25T10:13:23.948Z,24.90
2018-07-25T10:15:51.455Z,24.90
2018-07-25T10:18:20.424Z,24.90
2018-07-25T10:20:47.900Z,24.90
2018-07-25T10:23:15.377Z,24.90
2018-07-25T10:25:42.837Z,25.00
2018-07-25T10:28:10.859Z,24.90
2018-07-25T10:30:38.385Z,25.00
2018-07-25T10:33:05.836Z,24.90
2018-07-25T10:35:34.807Z,24.90
2018-07-25T10:38:02.266Z,24.90
2018-07-25T10:40:29.745Z,24.90
2018-07-25T10:42:57.311Z,25.00
2018-07-25T10:45:24.770Z,24.90
2018-07-25T10:47:52.341Z,24.90
2018-07-25T10:50:19.806Z,25.00
2018-07-25T10:52:48.775Z,25.00
2018-07-25T10:55:16.254Z,25.10
2018-07-25T10:57:43.707Z,25.00
2018-07-25T11:00:11.168Z,25.10
2018-07-25T11:02:38.743Z,25.20
2018-07-25T11:05:06.214Z,25.20
2018-07-25T11:07:33.793Z,25.30
2018-07-25T11:10:02.064Z,25.30
2018-07-25T11:12:30.288Z,25.30
2018-07-25T11:14:57.822Z,25.30
2018-07-25T11:17:25.376Z,25.40
2018-07-25T11:19:53.596Z,25.40
2018-07-25T11:22:21.064Z,25.40
2018-07-25T11:24:48.586Z,25.40
2018-07-25T11:27:17.269Z,25.70
2018-07-25T11:29:44.727Z,25.60
2018-07-25T11:32:12.285Z,25.70
2018-07-25T11:34:39.746Z,25.70
2018-07-25T11:37:07.215Z,25.80
2018-07-25T11:39:34.679Z,25.90
2018-07-25T11:42:03.371Z,25.90
2018-07-25T11:44:31.641Z,26.00
2018-07-25T11:47:00.290Z,26.20
2018-07-25T11:49:27.745Z,26.30
2018-07-25T11:51:55.218Z,26.40
2018-07-25T11:54:22.667Z,26.40
2018-07-25T11:56:50.180Z,26.40
2018-07-25T11:59:17.760Z,26.40
2018-07-25T12:01:45.475Z,26.40
2018-07-25T12:04:13.551Z,26.40
2018-07-25T12:06:41.067Z,26.40
2018-07-25T12:09:09.639Z,26.40
2018-07-25T12:11:37.111Z,26.50
2018-07-25T12:14:04.595Z,26.40
2018-07-25T12:16:32.843Z,26.50
2018-07-25T12:19:00.412Z,26.50
2018-07-25T12:21:28.639Z,26.90
2018-07-25T12:23:56.110Z,26.80
2018-07-25T12:26:23.628Z,26.80
2018-07-25T12:28:52.600Z,26.60
2018-07-25T12:31:20.082Z,26.60
2018-07-25T12:33:49.051Z,26.70
2018-07-25T12:36:16.519Z,26.70
2018-07-25T12:38:43.978Z,26.70
2018-07-25T12:41:11.452Z,26.90
2018-07-25T12:43:39.031Z,27.00
2018-07-25T12:46:07.263Z,27.00
2018-07-25T12:48:34.733Z,26.90
2018-07-25T12:51:02.198Z,27.10
2018-07-25T12:53:29.700Z,27.20
2018-07-25T12:55:57.933Z,27.30
2018-07-25T12:58:26.559Z,27.40
2018-07-25T13:00:55.248Z,27.60
2018-07-25T13:03:22.708Z,27.50
2018-07-25T13:05:50.339Z,27.70
2018-07-25T13:08:17.799Z,27.50
2018-07-25T13:10:45.285Z,27.70
2018-07-25T13:13:12.775Z,27.70
2018-07-25T13:15:41.004Z,27.80
2018-07-25T13:18:08.513Z,27.80
2018-07-25T13:20:37.479Z,27.90
2018-07-25T13:23:05.039Z,27.90
2018-07-25T13:25:32.425Z,27.90
2018-07-25T13:27:59.892Z,27.90
2018-07-25T13:30:27.364Z,27.90
2018-07-25T13:32:55.611Z,27.60
2018-07-25T13:35:23.085Z,27.60
2018-07-25T13:37:50.541Z,27.70
2018-07-25T13:40:18.019Z,27.90
2018-07-25T13:42:45.549Z,28.10
2018-07-25T13:45:12.958Z,28.10
2018-07-25T13:47:40.415Z,28.30
2018-07-25T13:50:07.880Z,28.30
2018-07-25T13:52:35.343Z,28.30
2018-07-25T13:55:02.810Z,28.40
2018-07-25T13:57:30.365Z,28.60
2018-07-25T13:59:57.919Z,28.60
2018-07-25T14:02:26.268Z,28.60
2018-07-25T14:04:53.778Z,28.80
2018-07-25T14:07:21.273Z,28.60
2018-07-25T14:09:48.757Z,28.60
2018-07-25T14:12:16.216Z,28.60
2018-07-25T14:14:43.668Z,28.70
2018-07-25T14:17:11.139Z,28.90
2018-07-25T14:19:38.610Z,28.90
2018-07-25T14:22:06.065Z,28.80
2018-07-25T14:24:35.419Z,28.80
2018-07-25T14:27:02.929Z,28.70
2018-07-25T14:29:30.433Z,28.90
2018-07-25T14:31:58.618Z,29.00
2018-07-25T14:34:27.603Z,28.90
2018-07-25T14:36:55.065Z,28.90
2018-07-25T14:39:22.627Z,28.90
2018-07-25T14:41:50.203Z,28.90
2018-07-25T14:44:17.673Z,29.00
2018-07-25T14:46:45.267Z,29.10
2018-07-25T14:49:12.795Z,29.00
2018-07-25T14:51:40.252Z,29.00
2018-07-25T14:54:07.821Z,29.10
2018-07-25T14:56:35.292Z,29.10
2018-07-25T14:59:04.269Z,29.00
2018-07-25T15:01:31.739Z,29.00
2018-07-25T15:03:59.299Z,29.10
2018-07-25T15:06:26.764Z,29.10
2018-07-25T15:08:54.334Z,29.00
2018-07-25T15:11:21.793Z,29.10
2018-07-25T15:13:49.372Z,29.10
2018-07-25T15:16:16.827Z,29.20
2018-07-25T15:18:44.298Z,29.20
2018-07-25T15:21:11.763Z,29.20
2018-07-25T15:23:54.903Z,29.30
2018-07-25T15:26:23.144Z,29.30
2018-07-25T15:28:50.606Z,29.30
2018-07-25T15:31:18.082Z,29.30
2018-07-25T15:33:45.677Z,29.30
2018-07-25T15:36:13.187Z,29.40
2018-07-25T15:38:40.663Z,29.40
2018-07-25T15:41:08.237Z,29.40
2018-07-25T15:43:35.707Z,29.50
2018-07-25T15:46:03.192Z,29.40
2018-07-25T15:48:30.964Z,29.20
2018-07-25T15:50:58.491Z,29.30
2018-07-25T15:53:26.039Z,29.30
2018-07-25T15:55:53.620Z,29.30
2018-07-25T15:58:21.902Z,29.40
2018-07-25T16:00:50.180Z,29.40
2018-07-25T16:03:17.740Z,29.40
2018-07-25T16:05:46.833Z,29.50
2018-07-25T16:08:14.287Z,29.50
2018-07-25T16:10:41.835Z,29.50
2018-07-25T16:13:09.669Z,29.50
2018-07-25T16:15:37.209Z,29.60
2018-07-25T16:18:04.659Z,29.70
2018-07-25T16:20:32.133Z,29.60
2018-07-25T16:23:00.411Z,29.40
2018-07-25T16:25:28.848Z,29.40
2018-07-25T16:27:56.334Z,29.50
2018-07-25T16:30:23.830Z,29.50
2018-07-25T16:32:51.316Z,29.50
2018-07-25T16:35:19.548Z,29.50
2018-07-25T16:37:47.122Z,29.50
2018-07-25T16:40:16.118Z,29.30
2018-07-25T16:42:43.689Z,29.30
2018-07-25T16:45:11.176Z,29.20
2018-07-25T16:47:39.421Z,29.30
2018-07-25T16:50:06.895Z,29.30
2018-07-25T16:52:35.137Z,29.40
2018-07-25T16:55:02.738Z,29.40
2018-07-25T16:57:30.201Z,29.40
2018-07-25T16:59:57.669Z,29.30
2018-07-25T17:02:25.215Z,29.40
2018-07-25T17:04:54.329Z,29.00
2018-07-25T17:07:21.803Z,29.00
2018-07-25T17:09:50.091Z,29.00
2018-07-25T17:12:18.445Z,29.10
2018-07-25T17:14:46.031Z,29.10
2018-07-25T17:17:13.507Z,29.20
2018-07-25T17:19:41.752Z,29.10
2018-07-25T17:22:09.267Z,29.10
2018-07-25T17:24:36.777Z,29.00
2018-07-25T17:27:04.253Z,29.10
2018-07-25T17:29:31.815Z,29.20
2018-07-25T17:31:59.317Z,29.00
2018-07-25T17:34:26.836Z,29.00
2018-07-25T17:36:54.305Z,29.00
2018-07-25T17:39:21.852Z,29.10
2018-07-25T17:41:49.429Z,28.90
2018-07-25T17:44:19.349Z,29.00
2018-07-25T17:46:46.945Z,28.90
2018-07-25T17:49:15.168Z,29.10
2018-07-25T17:51:42.751Z,29.10
2018-07-25T17:54:10.326Z,29.10
2018-07-25T17:56:39.362Z,29.10
2018-07-25T17:59:06.859Z,29.10
2018-07-25T18:01:34.474Z,28.80
2018-07-25T18:04:02.726Z,28.80
2018-07-25T18:06:30.964Z,28.50
2018-07-25T18:08:58.443Z,28.50
2018-07-25T18:11:25.936Z,28.30
2018-07-25T18:13:59.592Z,28.40
2018-07-25T18:16:27.113Z,28.60
2018-07-25T18:18:54.582Z,28.80
2018-07-25T18:21:22.836Z,28.50
2018-07-25T18:23:51.127Z,28.60
2018-07-25T18:26:19.153Z,28.60
2018-07-25T18:28:47.768Z,28.40
2018-07-25T18:31:15.365Z,28.30
2018-07-25T18:33:42.854Z,28.40
2018-07-25T18:36:10.409Z,28.50
2018-07-25T18:38:38.674Z,29.00
2018-07-25T18:41:07.036Z,29.00
2018-07-25T18:43:34.518Z,29.00
2018-07-25T18:46:01.979Z,28.80
2018-07-25T18:48:29.438Z,28.40
2018-07-25T18:50:57.006Z,28.30
2018-07-25T18:53:24.475Z,28.30
2018-07-25T18:55:51.936Z,28.20
2018-07-25T18:58:20.172Z,28.10
2018-07-25T19:00:47.648Z,28.20
2018-07-25T19:03:15.517Z,28.10
2018-07-25T19:05:43.008Z,28.00
2018-07-25T19:08:10.459Z,28.10
2018-07-25T19:10:37.944Z,28.30
2018-07-25T19:13:06.221Z,27.80
2018-07-25T19:15:33.660Z,27.80
2018-07-25T19:18:01.892Z,28.30
2018-07-25T19:20:29.371Z,28.40
2018-07-25T19:22:56.819Z,28.40
2018-07-25T19:25:24.290Z,28.50
2018-07-25T19:27:51.756Z,28.40
2018-07-25T19:30:19.271Z,28.10
2018-07-25T19:32:46.830Z,28.10
2018-07-25T19:35:14.287Z,28.00
2018-07-25T19:37:41.739Z,28.10
2018-07-25T19:40:10.027Z,28.10
2018-07-25T19:42:37.576Z,28.10
2018-07-25T19:45:05.031Z,28.30
2018-07-25T19:47:32.487Z,28.20
2018-07-25T19:49:59.951Z,28.10
2018-07-25T19:52:27.417Z,28.20
2018-07-25T19:54:54.987Z,28.10
2018-07-25T19:57:22.436Z,28.10
2018-07-25T19:59:49.926Z,28.20
2018-07-25T20:02:17.386Z,28.40
2018-07-25T20:04:44.939Z,28.80
2018-07-25T20:07:12.399Z,28.90
2018-07-25T20:09:39.842Z,29.00
2018-07-25T20:12:07.305Z,29.00
2018-07-25T20:14:34.766Z,29.00
2018-07-25T20:17:02.245Z,29.00
2018-07-25T20:19:29.679Z,29.00
2018-07-25T20:21:57.445Z,28.80
2018-07-25T20:24:24.904Z,28.80
2018-07-25T20:26:52.413Z,28.80
2018-07-25T20:29:19.877Z,28.70
2018-07-25T20:31:47.335Z,28.80
2018-07-25T20:34:14.903Z,28.70
2018-07-25T20:36:43.880Z,28.60
2018-07-25T20:39:11.331Z,28.60
2018-07-25T20:41:38.825Z,28.60
2018-07-25T20:44:06.397Z,28.60
2018-07-25T20:46:33.854Z,28.70
2018-07-25T20:49:01.423Z,28.60
2018-07-25T20:51:29.662Z,28.50
2018-07-25T20:53:57.919Z,28.50
2018-07-25T20:56:26.153Z,28.50
2018-07-25T20:58:55.153Z,28.40
2018-07-25T21:01:22.612Z,28.40
2018-07-25T21:03:50.102Z,28.20
2018-07-25T21:06:17.554Z,28.20
2018-07-25T21:08:45.104Z,28.20
2018-07-25T21:11:12.567Z,28.20
2018-07-25T21:13:40.038Z,28.20
2018-07-25T21:16:07.566Z,28.10
2018-07-25T21:18:35.053Z,28.10
2018-07-25T21:21:02.636Z,28.00
2018-07-25T21:23:30.090Z,27.50
2018-07-25T21:25:57.637Z,26.30
2018-07-25T21:28:26.329Z,25.40
2018-07-25T21:30:53.893Z,25.30
2018-07-25T21:33:21.347Z,25.20
2018-07-25T21:35:48.924Z,25.00
2018-07-25T21:38:16.492Z,24.90
2018-07-25T21:40:43.952Z,24.70
2018-07-25T21:43:11.515Z,24.70
2018-07-25T21:45:39.082Z,24.50
2018-07-25T21:48:06.634Z,24.50
2018-07-25T21:50:34.234Z,24.30
2018-07-25T21:53:01.705Z,24.30
2018-07-25T21:55:29.953Z,24.20
2018-07-25T21:57:57.412Z,24.20
2018-07-25T22:00:25.724Z,24.30
2018-07-25T22:02:53.939Z,24.20
2018-07-25T22:05:21.395Z,24.20
2018-07-25T22:07:48.896Z,24.20
2018-07-25T22:10:16.467Z,24.10
2018-07-25T22:12:44.020Z,24.30
2018-07-25T22:15:11.485Z,24.20
2018-07-25T22:17:40.039Z,24.20
2018-07-25T22:20:07.507Z,24.20
2018-07-25T22:22:34.957Z,24.00
2018-07-25T22:25:02.423Z,23.90
2018-07-25T22:27:29.885Z,23.80
2018-07-25T22:29:57.343Z,23.90
2018-07-25T22:32:24.817Z,24.10
2018-07-25T22:34:52.265Z,24.10
2018-07-25T22:37:19.731Z,24.20
2018-07-25T22:39:47.196Z,24.30
2018-07-25T22:42:14.656Z,24.50
2018-07-25T22:44:42.121Z,24.40
2018-07-25T22:47:09.614Z,24.50
2018-07-25T22:49:37.076Z,24.50
2018-07-25T22:52:04.535Z,24.40
2018-07-25T22:54:32.113Z,24.40
2018-07-25T22:56:59.670Z,24.40
2018-07-25T22:59:27.119Z,24.40
2018-07-25T23:01:54.592Z,24.10
2018-07-25T23:04:22.160Z,23.90
2018-07-25T23:06:49.627Z,23.80
2018-07-25T23:09:17.079Z,23.90
2018-07-25T23:11:44.544Z,23.80
2018-07-25T23:14:12.015Z,23.90
2018-07-25T23:16:39.569Z,23.70
2018-07-25T23:19:07.029Z,23.50
2018-07-25T23:21:34.559Z,23.40
2018-07-25T23:24:02.016Z,23.50
2018-07-25T23:26:29.483Z,23.50
2018-07-25T23:28:56.936Z,23.20
2018-07-25T23:31:24.448Z,23.10
2018-07-25T23:33:51.906Z,23.10
2018-07-25T23:36:19.377Z,23.00
2018-07-25T23:38:46.831Z,23.00
2018-07-25T23:41:14.296Z,23.00
2018-07-25T23:43:41.871Z,23.00
2018-07-25T23:46:09.335Z,23.00
2018-07-25T23:48:37.605Z,23.10
2018-07-25T23:51:05.669Z,23.10
2018-07-25T23:53:33.152Z,23.10
2018-07-25T23:56:01.384Z,23.00
2018-07-25T23:58:28.842Z,23.00
